createdAt,value
2019-01-03T00:00:17.627Z,2.70
2019-01-03T00:02:50.111Z,2.97
2019-01-03T00:05:32.551Z,2.40
2019-01-03T00:08:02.356Z,2.47
2019-01-03T00:10:37.994Z,2.60
2019-01-03T00:13:10.808Z,2.20
2019-01-03T00:15:52.859Z,2.43
2019-01-03T00:18:28.618Z,2.50
2019-01-03T00:21:15.035Z,2.63
2019-01-03T00:24:00.103Z,2.50
2019-01-03T00:26:46.705Z,2.97
2019-01-03T00:29:16.516Z,2.57
2019-01-03T00:31:55.372Z,3.13
2019-01-03T00:34:25.167Z,2.00
2019-01-03T00:37:11.339Z,2.50
2019-01-03T00:39:43.910Z,2.63
2019-01-03T00:42:16.410Z,2.40
2019-01-03T00:44:58.561Z,2.30
2019-01-03T00:47:37.680Z,2.63
2019-01-03T00:50:07.981Z,2.20
2019-01-03T00:52:37.804Z,2.10
2019-01-03T00:55:13.602Z,2.33
2019-01-03T00:57:58.457Z,2.47
2019-01-03T01:00:28.390Z,1.97
2019-01-03T01:03:14.483Z,2.17
2019-01-03T01:05:59.787Z,2.10
2019-01-03T01:08:32.166Z,1.90
2019-01-03T01:11:02.026Z,1.70
2019-01-03T01:13:47.393Z,1.63
2019-01-03T01:16:22.716Z,2.50
2019-01-03T01:18:55.553Z,2.07
2019-01-03T01:21:37.369Z,2.17
2019-01-03T01:24:24.074Z,2.60
2019-01-03T01:27:02.831Z,2.07
2019-01-03T01:29:49.257Z,2.50
2019-01-03T01:32:34.646Z,2.03
2019-01-03T01:35:04.451Z,2.20
2019-01-03T01:37:34.261Z,2.17
2019-01-03T01:40:10.090Z,2.23
2019-01-03T01:42:45.871Z,2.10
2019-01-03T01:45:32.151Z,2.07
2019-01-03T01:48:13.724Z,2.63
2019-01-03T01:50:58.693Z,2.17
2019-01-03T01:53:34.111Z,2.40
2019-01-03T01:56:07.341Z,2.13
2019-01-03T01:58:46.211Z,2.13
2019-01-03T02:01:22.144Z,2.23
2019-01-03T02:03:55.471Z,1.80
2019-01-03T02:06:28.572Z,1.90
2019-01-03T02:09:14.748Z,2.07
2019-01-03T02:11:50.560Z,2.60
2019-01-03T02:14:20.329Z,1.67
2019-01-03T02:16:50.467Z,2.10
2019-01-03T02:19:32.577Z,2.10
2019-01-03T02:22:14.454Z,1.67
2019-01-03T02:24:44.572Z,2.00
2019-01-03T02:27:17.433Z,2.10
2019-01-03T02:29:53.539Z,1.90
2019-01-03T02:32:23.344Z,1.80
2019-01-03T02:34:56.048Z,1.70
2019-01-03T02:37:42.124Z,2.10
2019-01-03T02:40:28.732Z,1.70
2019-01-03T02:43:10.837Z,1.77
2019-01-03T02:45:46.708Z,2.17
2019-01-03T02:48:19.532Z,1.80
2019-01-03T02:50:49.332Z,2.00
2019-01-03T02:53:35.823Z,1.83
2019-01-03T02:56:05.792Z,1.80
2019-01-03T02:58:41.628Z,1.93
2019-01-03T03:01:11.500Z,2.10
2019-01-03T03:03:56.329Z,1.67
2019-01-03T03:06:44.294Z,1.70
2019-01-03T03:09:14.082Z,1.80
2019-01-03T03:11:58.905Z,1.83
2019-01-03T03:14:34.901Z,2.00
2019-01-03T03:17:05.380Z,1.83
2019-01-03T03:19:35.518Z,1.90
2019-01-03T03:22:08.496Z,1.80
2019-01-03T03:24:38.303Z,1.60
2019-01-03T03:27:08.092Z,1.83
2019-01-03T03:29:40.638Z,1.80
2019-01-03T03:32:16.555Z,2.03
2019-01-03T03:34:52.512Z,2.10
2019-01-03T03:37:25.109Z,2.20
2019-01-03T03:39:57.700Z,1.63
2019-01-03T03:42:33.866Z,1.80
2019-01-03T03:45:09.736Z,2.13
2019-01-03T03:47:49.087Z,2.20
2019-01-03T03:50:18.894Z,1.80
2019-01-03T03:53:05.288Z,1.70
2019-01-03T03:55:52.044Z,1.60
2019-01-03T03:58:38.277Z,2.00
2019-01-03T04:01:20.126Z,2.07
2019-01-03T04:03:50.242Z,1.60
2019-01-03T04:06:36.625Z,1.97
2019-01-03T04:09:09.963Z,1.67
2019-01-03T04:11:39.730Z,2.03
2019-01-03T04:14:24.311Z,2.07
2019-01-03T04:17:03.110Z,2.70
2019-01-03T04:19:41.913Z,2.23
2019-01-03T04:22:28.320Z,1.57
2019-01-03T04:25:04.362Z,2.23
2019-01-03T04:27:34.153Z,1.90
2019-01-03T04:30:21.970Z,1.73
2019-01-03T04:32:52.113Z,2.43
2019-01-03T04:35:34.246Z,1.90
2019-01-03T04:38:22.732Z,2.17
2019-01-03T04:40:58.822Z,2.30
2019-01-03T04:43:35.111Z,2.00
2019-01-03T04:46:05.239Z,1.90
2019-01-03T04:48:53.604Z,2.00
2019-01-03T04:51:35.945Z,1.97
2019-01-03T04:54:08.544Z,1.80
2019-01-03T04:56:53.484Z,1.90
2019-01-03T04:59:35.569Z,1.90
2019-01-03T05:02:22.292Z,2.00
2019-01-03T05:04:54.884Z,2.47
2019-01-03T05:07:39.793Z,1.83
2019-01-03T05:10:13.027Z,1.63
2019-01-03T05:12:46.114Z,1.87
2019-01-03T05:15:27.957Z,1.97
2019-01-03T05:18:03.850Z,1.70
2019-01-03T05:20:42.779Z,1.60
2019-01-03T05:23:15.343Z,1.90
2019-01-03T05:25:48.417Z,1.70
2019-01-03T05:28:34.869Z,1.70
2019-01-03T05:31:07.356Z,2.00
2019-01-03T05:33:46.096Z,1.93
2019-01-03T05:36:16.522Z,1.80
2019-01-03T05:38:46.289Z,1.77
2019-01-03T05:41:28.049Z,2.20
2019-01-03T05:44:04.240Z,1.70
2019-01-03T05:46:34.430Z,1.93
2019-01-03T05:49:20.856Z,1.73
2019-01-03T05:51:56.383Z,1.80
2019-01-03T05:54:32.548Z,1.67
2019-01-03T05:57:11.398Z,1.90
2019-01-03T05:59:57.591Z,2.10
2019-01-03T06:02:27.451Z,1.77
2019-01-03T06:05:15.467Z,1.63
2019-01-03T06:07:54.161Z,1.50
2019-01-03T06:10:32.963Z,1.50
2019-01-03T06:13:18.475Z,1.90
2019-01-03T06:16:00.586Z,2.00
2019-01-03T06:18:42.527Z,2.20
2019-01-03T06:21:21.955Z,1.73
2019-01-03T06:23:51.746Z,1.67
2019-01-03T06:26:24.366Z,2.07
2019-01-03T06:29:10.504Z,2.20
2019-01-03T06:31:57.142Z,2.10
2019-01-03T06:34:27.264Z,2.07
2019-01-03T06:37:00.087Z,2.00
2019-01-03T06:39:36.162Z,2.30
2019-01-03T06:42:05.973Z,1.80
2019-01-03T06:44:52.473Z,1.90
2019-01-03T06:47:22.277Z,1.90
2019-01-03T06:49:52.057Z,1.63
2019-01-03T06:52:33.690Z,1.63
2019-01-03T06:55:04.059Z,1.87
2019-01-03T06:57:50.369Z,1.50
2019-01-03T07:00:20.155Z,2.07
2019-01-03T07:02:53.416Z,2.10
2019-01-03T07:05:23.277Z,2.10
2019-01-03T07:08:02.315Z,1.80
2019-01-03T07:10:34.933Z,1.67
2019-01-03T07:13:11.049Z,1.73
2019-01-03T07:16:00.432Z,2.00
2019-01-03T07:18:36.462Z,1.90
2019-01-03T07:21:27.372Z,2.30
2019-01-03T07:24:05.355Z,2.30
2019-01-03T07:26:37.611Z,2.60
2019-01-03T07:29:07.385Z,2.40
2019-01-03T07:31:43.262Z,2.40
2019-01-03T07:34:29.709Z,3.00
2019-01-03T07:37:02.477Z,1.93
2019-01-03T07:39:38.477Z,2.60
2019-01-03T07:42:08.270Z,1.83
2019-01-03T07:44:41.143Z,2.40
2019-01-03T07:47:22.902Z,2.00
2019-01-03T07:49:55.791Z,2.20
2019-01-03T07:52:42.453Z,2.30
2019-01-03T07:55:12.597Z,2.67
2019-01-03T07:57:45.504Z,3.20
2019-01-03T08:00:18.110Z,6.23
2019-01-03T08:03:00.421Z,2.77
2019-01-03T08:05:33.333Z,3.20
2019-01-03T08:08:15.438Z,2.90
2019-01-03T08:10:54.468Z,2.37
2019-01-03T08:13:24.585Z,2.93
2019-01-03T08:15:57.455Z,2.90
2019-01-03T08:18:30.766Z,4.30
2019-01-03T08:21:09.422Z,5.03
2019-01-03T08:23:39.537Z,3.67
2019-01-03T08:26:21.850Z,4.30
2019-01-03T08:29:08.188Z,3.70
2019-01-03T08:31:41.100Z,2.87
2019-01-03T08:34:19.976Z,3.17
2019-01-03T08:37:06.120Z,3.53
2019-01-03T08:39:44.780Z,3.80
2019-01-03T08:42:14.631Z,3.70
2019-01-03T08:44:50.436Z,6.50
2019-01-03T08:47:37.045Z,6.03
2019-01-03T08:50:22.529Z,9.97
2019-01-03T08:53:01.065Z,18.60
2019-01-03T08:55:33.901Z,15.67
2019-01-03T08:58:20.481Z,14.03
2019-01-03T09:01:06.896Z,13.57
2019-01-03T09:03:43.015Z,11.27
2019-01-03T09:06:19.125Z,10.83
2019-01-03T09:09:05.456Z,9.60
2019-01-03T09:11:53.270Z,8.33
2019-01-03T09:14:28.659Z,8.83
2019-01-03T09:17:04.463Z,4.80
2019-01-03T09:19:50.812Z,7.20
2019-01-03T09:22:21.068Z,7.57
2019-01-03T09:24:53.862Z,6.03
2019-01-03T09:27:23.666Z,5.10
2019-01-03T09:30:06.096Z,4.60
2019-01-03T09:32:42.274Z,4.47
2019-01-03T09:35:28.454Z,4.33
2019-01-03T09:38:01.353Z,4.37
2019-01-03T09:40:34.507Z,5.07
2019-01-03T09:43:13.418Z,4.67
2019-01-03T09:45:44.414Z,5.20
2019-01-03T09:48:11.833Z,5.03
2019-01-03T09:50:39.995Z,4.87
2019-01-03T09:53:08.125Z,4.37
2019-01-03T09:55:36.304Z,4.17
2019-01-03T09:58:04.536Z,4.83
2019-01-03T10:00:32.763Z,4.50
2019-01-03T10:03:01.516Z,4.50
2019-01-03T10:05:30.048Z,4.30
2019-01-03T10:07:58.554Z,4.17
2019-01-03T10:10:26.677Z,4.57
2019-01-03T10:12:55.226Z,4.40
2019-01-03T10:15:23.700Z,4.43
2019-01-03T10:17:52.169Z,4.83
2019-01-03T10:20:20.689Z,4.30
2019-01-03T10:22:48.898Z,4.57
2019-01-03T10:25:17.027Z,4.87
2019-01-03T10:27:45.486Z,4.57
2019-01-03T10:30:13.773Z,5.27
2019-01-03T10:32:42.268Z,4.27
2019-01-03T10:35:10.417Z,5.10
2019-01-03T10:37:38.607Z,4.97
2019-01-03T10:40:07.101Z,5.07
2019-01-03T10:42:35.265Z,4.43
2019-01-03T10:45:03.486Z,4.73
2019-01-03T10:47:32.172Z,6.47
2019-01-03T10:50:00.641Z,6.03
2019-01-03T10:52:29.116Z,23.10
2019-01-03T10:54:57.286Z,7.53
2019-01-03T10:57:25.463Z,7.63
2019-01-03T10:59:53.671Z,7.53
2019-01-03T11:02:21.844Z,12.33
2019-01-03T11:04:49.990Z,9.20
2019-01-03T11:07:18.164Z,9.07
2019-01-03T11:09:46.317Z,9.97
2019-01-03T11:12:14.499Z,12.17
2019-01-03T11:14:42.989Z,11.30
2019-01-03T11:17:11.491Z,12.07
2019-01-03T11:19:39.632Z,10.37
2019-01-03T11:22:07.809Z,10.03
2019-01-03T11:24:36.003Z,8.73
2019-01-03T11:27:04.292Z,10.00
2019-01-03T11:29:32.808Z,10.17
2019-01-03T11:32:01.291Z,7.43
2019-01-03T11:34:29.877Z,6.00
2019-01-03T11:36:58.020Z,5.60
2019-01-03T11:39:26.219Z,6.27
2019-01-03T11:41:54.368Z,6.37
2019-01-03T11:44:22.855Z,5.73
2019-01-03T11:46:51.376Z,5.63
2019-01-03T11:49:19.977Z,5.47
2019-01-03T11:51:48.145Z,4.87
2019-01-03T11:54:16.270Z,5.03
2019-01-03T11:56:44.576Z,5.00
2019-01-03T11:59:12.769Z,5.40
2019-01-03T12:01:41.245Z,4.83
2019-01-03T12:04:09.765Z,4.60
2019-01-03T12:06:38.055Z,4.87
2019-01-03T12:09:06.384Z,4.53
2019-01-03T12:11:34.507Z,5.20
2019-01-03T12:14:02.668Z,4.57
2019-01-03T12:16:30.811Z,4.67
2019-01-03T12:18:58.972Z,4.07
2019-01-03T12:21:27.198Z,4.47
2019-01-03T12:23:55.359Z,4.20
2019-01-03T12:26:23.854Z,4.73
2019-01-03T12:28:52.122Z,6.07
2019-01-03T12:31:20.687Z,17.77
2019-01-03T12:33:49.602Z,7.77
2019-01-03T12:36:18.120Z,7.50
2019-01-03T12:38:46.551Z,8.53
2019-01-03T12:41:15.070Z,8.60
2019-01-03T12:43:43.219Z,11.77
2019-01-03T12:46:11.423Z,16.20
2019-01-03T12:48:45.369Z,14.77
2019-01-03T12:51:09.745Z,12.73
2019-01-03T12:53:37.966Z,10.90
2019-01-03T12:56:06.510Z,14.63
2019-01-03T12:58:34.978Z,16.40
2019-01-03T13:01:03.193Z,15.17
2019-01-03T13:03:33.557Z,14.17
2019-01-03T13:06:01.711Z,15.70
2019-01-03T13:08:29.899Z,11.03
2019-01-03T13:10:58.033Z,8.90
2019-01-03T13:13:26.239Z,8.30
2019-01-03T13:15:54.414Z,8.13
2019-01-03T13:18:22.597Z,7.17
2019-01-03T13:20:50.741Z,19.87
2019-01-03T13:23:19.499Z,28.33
2019-01-03T13:25:47.657Z,14.40
2019-01-03T13:28:15.913Z,23.43
2019-01-03T13:30:44.051Z,25.77
2019-01-03T13:33:12.277Z,23.10
2019-01-03T13:35:40.906Z,18.60
2019-01-03T13:38:09.503Z,12.60
2019-01-03T13:40:38.017Z,11.80
2019-01-03T13:43:06.133Z,9.00
2019-01-03T13:45:34.271Z,6.20
2019-01-03T13:48:02.450Z,6.13
2019-01-03T13:50:30.620Z,6.40
2019-01-03T13:52:58.763Z,5.87
2019-01-03T13:55:27.199Z,5.43
2019-01-03T13:57:55.329Z,5.67
2019-01-03T14:00:23.918Z,5.77
2019-01-03T14:02:52.060Z,5.57
2019-01-03T14:05:20.218Z,5.70
2019-01-03T14:07:48.411Z,5.03
2019-01-03T14:10:16.558Z,4.83
2019-01-03T14:12:45.326Z,4.60
2019-01-03T14:15:13.749Z,5.07
2019-01-03T14:17:42.257Z,4.80
2019-01-03T14:20:11.374Z,4.50
2019-01-03T14:22:39.543Z,5.43
2019-01-03T14:25:07.758Z,4.40
2019-01-03T14:27:35.933Z,4.63
2019-01-03T14:30:05.930Z,5.50
2019-01-03T14:32:34.058Z,6.07
2019-01-03T14:35:02.259Z,4.97
2019-01-03T14:37:30.790Z,6.00
2019-01-03T14:39:59.538Z,6.90
2019-01-03T14:42:27.704Z,7.60
2019-01-03T14:44:55.841Z,7.50
2019-01-03T14:47:24.019Z,8.53
2019-01-03T14:49:52.155Z,8.03
2019-01-03T14:52:20.636Z,8.77
2019-01-03T14:54:49.157Z,8.90
2019-01-03T14:57:17.662Z,9.13
2019-01-03T14:59:45.851Z,9.43
2019-01-03T15:02:14.028Z,11.33
2019-01-03T15:04:42.176Z,12.60
2019-01-03T15:07:10.349Z,12.17
2019-01-03T15:09:38.500Z,16.83
2019-01-03T15:12:07.046Z,17.87
2019-01-03T15:14:35.520Z,27.77
2019-01-03T15:17:04.049Z,23.40
2019-01-03T15:19:32.220Z,20.47
2019-01-03T15:22:00.364Z,13.63
2019-01-03T15:24:28.553Z,12.50
2019-01-03T15:26:56.695Z,10.73
2019-01-03T15:29:24.902Z,10.73
2019-01-03T15:31:53.027Z,8.60
2019-01-03T15:34:21.223Z,8.87
2019-01-03T15:36:49.694Z,8.23
2019-01-03T15:39:18.173Z,8.33
2019-01-03T15:41:46.381Z,8.10
2019-01-03T15:44:14.517Z,7.30
2019-01-03T15:46:42.665Z,6.97
2019-01-03T15:49:10.827Z,7.13
2019-01-03T15:51:38.997Z,6.10
2019-01-03T15:54:07.135Z,6.93
2019-01-03T15:56:35.300Z,5.90
2019-01-03T15:59:03.788Z,6.53
2019-01-03T16:01:31.971Z,7.07
2019-01-03T16:04:00.106Z,5.47
2019-01-03T16:06:28.244Z,6.17
2019-01-03T16:08:56.435Z,7.60
2019-01-03T16:11:24.568Z,7.97
2019-01-03T16:13:53.046Z,7.17
2019-01-03T16:16:21.201Z,8.03
2019-01-03T16:18:49.366Z,8.87
2019-01-03T16:21:17.845Z,9.07
2019-01-03T16:23:46.006Z,9.17
2019-01-03T16:26:14.495Z,8.80
2019-01-03T16:28:43.029Z,7.67
2019-01-03T16:31:11.166Z,7.73
2019-01-03T16:33:39.645Z,7.57
2019-01-03T16:36:07.858Z,7.83
2019-01-03T16:38:35.994Z,8.87
2019-01-03T16:41:04.136Z,9.30
2019-01-03T16:43:32.306Z,9.03
2019-01-03T16:46:00.519Z,7.60
2019-01-03T16:48:28.637Z,7.77
2019-01-03T16:50:57.455Z,8.30
2019-01-03T16:53:25.713Z,9.00
2019-01-03T16:55:53.836Z,9.07
2019-01-03T16:58:22.026Z,8.20
2019-01-03T17:00:50.242Z,8.13
2019-01-03T17:03:18.436Z,8.37
2019-01-03T17:05:46.578Z,8.53
2019-01-03T17:08:14.721Z,7.77
2019-01-03T17:10:42.909Z,7.90
2019-01-03T17:13:11.343Z,8.47
2019-01-03T17:15:40.230Z,8.50
2019-01-03T17:18:08.365Z,7.63
2019-01-03T17:20:36.886Z,8.10
2019-01-03T17:23:05.038Z,8.97
2019-01-03T17:25:33.204Z,8.47
2019-01-03T17:28:01.340Z,8.93
2019-01-03T17:30:29.808Z,9.03
2019-01-03T17:32:57.973Z,10.07
2019-01-03T17:35:26.426Z,8.90
2019-01-03T17:37:54.859Z,8.53
2019-01-03T17:40:23.337Z,9.37
2019-01-03T17:42:51.591Z,8.73
2019-01-03T17:45:20.066Z,9.13
2019-01-03T17:47:48.551Z,8.97
2019-01-03T17:50:16.730Z,9.57
2019-01-03T17:52:44.904Z,9.97
2019-01-03T17:55:13.115Z,10.67
2019-01-03T17:57:41.321Z,10.23
2019-01-03T18:00:11.323Z,10.80
2019-01-03T18:02:39.456Z,9.80
2019-01-03T18:05:07.710Z,10.97
2019-01-03T18:07:36.221Z,10.70
2019-01-03T18:10:08.282Z,11.67
2019-01-03T18:12:36.756Z,12.80
2019-01-03T18:15:06.951Z,13.03
2019-01-03T18:17:35.718Z,12.07
2019-01-03T18:20:05.453Z,15.70
2019-01-03T18:22:33.574Z,14.60
2019-01-03T18:25:03.370Z,16.17
2019-01-03T18:27:31.504Z,14.10
2019-01-03T18:29:59.655Z,13.30
2019-01-03T18:32:27.809Z,13.80
2019-01-03T18:34:55.958Z,13.50
2019-01-03T18:37:24.111Z,12.97
2019-01-03T18:39:52.278Z,12.97
2019-01-03T18:42:20.446Z,13.60
2019-01-03T18:44:48.590Z,14.23
2019-01-03T18:47:16.725Z,13.50
2019-01-03T18:49:45.245Z,13.07
2019-01-03T18:52:13.394Z,13.20
2019-01-03T18:54:42.203Z,13.40
2019-01-03T18:57:10.380Z,13.83
2019-01-03T18:59:38.526Z,13.03
2019-01-03T19:02:06.684Z,13.80
2019-01-03T19:04:34.907Z,12.90
2019-01-03T19:07:03.058Z,12.87
2019-01-03T19:09:31.578Z,12.67
2019-01-03T19:12:00.016Z,12.83
2019-01-03T19:14:28.157Z,13.00
2019-01-03T19:16:56.296Z,12.60
2019-01-03T19:19:24.452Z,12.97
2019-01-03T19:21:52.591Z,12.77
2019-01-03T19:24:21.419Z,13.67
2019-01-03T19:26:49.877Z,12.50
2019-01-03T19:29:18.050Z,13.20
2019-01-03T19:31:46.250Z,12.43
2019-01-03T19:34:14.479Z,12.17
2019-01-03T19:36:42.616Z,12.50
2019-01-03T19:39:10.800Z,12.47
2019-01-03T19:41:39.020Z,12.37
2019-01-03T19:44:07.480Z,13.20
2019-01-03T19:46:35.923Z,12.87
2019-01-03T19:49:04.397Z,12.80
2019-01-03T19:51:32.892Z,13.80
2019-01-03T19:54:01.039Z,13.40
2019-01-03T19:56:29.222Z,13.23
2019-01-03T19:58:57.354Z,14.63
2019-01-03T20:01:25.848Z,14.27
2019-01-03T20:03:53.993Z,14.83
2019-01-03T20:06:22.142Z,14.10
2019-01-03T20:08:50.291Z,14.00
2019-01-03T20:11:18.785Z,14.77
2019-01-03T20:13:46.938Z,13.90
2019-01-03T20:16:15.098Z,14.27
2019-01-03T20:18:43.283Z,14.23
2019-01-03T20:21:11.415Z,14.07
2019-01-03T20:23:39.541Z,13.67
2019-01-03T20:26:07.714Z,13.13
2019-01-03T20:28:35.847Z,12.20
2019-01-03T20:31:04.051Z,13.47
2019-01-03T20:33:32.229Z,14.23
2019-01-03T20:36:00.368Z,13.13
2019-01-03T20:38:28.504Z,13.67
2019-01-03T20:40:56.654Z,14.70
2019-01-03T20:43:24.827Z,13.73
2019-01-03T20:45:53.297Z,14.53
2019-01-03T20:48:21.774Z,14.57
2019-01-03T20:50:49.999Z,14.40
2019-01-03T20:53:18.858Z,14.97
2019-01-03T20:55:47.046Z,16.23
2019-01-03T20:58:15.518Z,16.03
2019-01-03T21:00:43.634Z,15.87
2019-01-03T21:03:11.805Z,16.27
2019-01-03T21:05:39.970Z,20.23
2019-01-03T21:08:08.102Z,20.17
2019-01-03T21:10:36.225Z,23.73
2019-01-03T21:13:04.460Z,24.17
2019-01-03T21:15:32.963Z,25.43
2019-01-03T21:18:01.109Z,19.50
2019-01-03T21:20:29.266Z,18.17
2019-01-03T21:22:57.437Z,18.30
2019-01-03T21:25:25.833Z,20.30
2019-01-03T21:27:54.066Z,18.20
2019-01-03T21:30:22.478Z,17.80
2019-01-03T21:32:50.721Z,17.87
2019-01-03T21:35:19.326Z,18.97
2019-01-03T21:37:47.506Z,17.53
2019-01-03T21:40:15.635Z,15.87
2019-01-03T21:42:44.097Z,17.97
2019-01-03T21:45:12.807Z,21.43
2019-01-03T21:47:40.949Z,26.40
2019-01-03T21:50:10.184Z,21.47
2019-01-03T21:52:38.752Z,21.30
2019-01-03T21:55:06.965Z,21.27
2019-01-03T21:57:35.172Z,21.10
2019-01-03T22:00:05.276Z,19.97
2019-01-03T22:02:33.819Z,17.67
2019-01-03T22:05:02.073Z,16.87
2019-01-03T22:07:30.288Z,17.47
2019-01-03T22:09:58.767Z,18.57
2019-01-03T22:12:27.288Z,18.77
2019-01-03T22:14:55.862Z,18.67
2019-01-03T22:17:24.320Z,17.33
2019-01-03T22:19:52.499Z,17.33
2019-01-03T22:22:20.643Z,17.73
2019-01-03T22:24:49.458Z,17.67
2019-01-03T22:27:17.605Z,18.13
2019-01-03T22:29:45.780Z,17.47
2019-01-03T22:32:14.001Z,16.97
2019-01-03T22:34:42.148Z,17.80
2019-01-03T22:37:10.274Z,19.00
2019-01-03T22:39:38.452Z,17.23
2019-01-03T22:42:06.597Z,16.90
2019-01-03T22:44:34.732Z,16.90
2019-01-03T22:47:02.896Z,16.97
2019-01-03T22:49:31.045Z,16.93
2019-01-03T22:51:59.209Z,18.67
2019-01-03T22:54:27.689Z,18.13
2019-01-03T22:56:56.169Z,17.47
2019-01-03T22:59:24.318Z,17.70
2019-01-03T23:01:52.815Z,18.80
2019-01-03T23:04:20.952Z,17.47
2019-01-03T23:06:49.102Z,18.47
2019-01-03T23:09:17.248Z,18.30
2019-01-03T23:11:45.428Z,19.33
2019-01-03T23:14:13.578Z,20.57
2019-01-03T23:16:42.073Z,18.77
2019-01-03T23:19:10.390Z,19.33
2019-01-03T23:21:38.580Z,19.40
2019-01-03T23:24:07.213Z,21.47
2019-01-03T23:26:35.348Z,20.57
2019-01-03T23:29:03.483Z,19.87
2019-01-03T23:31:31.647Z,21.03
2019-01-03T23:33:59.827Z,20.93
2019-01-03T23:36:28.037Z,20.37
2019-01-03T23:38:56.167Z,19.20
2019-01-03T23:41:24.589Z,18.80
2019-01-03T23:43:52.743Z,18.13
2019-01-03T23:46:21.247Z,17.67
2019-01-03T23:48:49.735Z,17.93
2019-01-03T23:51:17.890Z,16.73
2019-01-03T23:53:46.024Z,18.03
2019-01-03T23:56:14.202Z,16.37
2019-01-03T23:58:42.355Z,18.20
